Time;durP1;ratioP1;P1;durP2;ratioP2;P2;SDS_P1;SDS_P2;PMS_P1;PMS_P2;Temp;Humidity;BMP_temperature;BMP_pressure;BME280_temperature;BME280_humidity;BME280_pressure;Samples;Min_cycle;Max_cycle;Signal;HPM_P1;HPM_P2
2024/02/05 00:01:12;;;;;;;;;;;4.70;87.10;;;;;;5016367;28;86792;-61
2024/02/05 00:03:37;;;;;;;;;;;4.70;87.20;;;;;;5008934;28;87259;-61
2024/02/05 00:06:04;;;;;;;;;;;4.70;87.10;;;;;;5012189;28;86765;-61
2024/02/05 00:08:30;;;;;;;;;;;4.70;87.10;;;;;;5011074;28;86961;-61
2024/02/05 00:10:56;;;;;;;;;;;4.70;87.10;;;;;;5013662;28;87050;-61
2024/02/05 00:13:23;;;;;;;;;;;4.70;87.00;;;;;;5019595;28;88409;-61
2024/02/05 00:15:48;;;;;;;;;;;4.70;87.00;;;;;;5015258;28;88854;-61
2024/02/05 00:18:14;;;;;;;;;;;4.70;87.10;;;;;;5017479;28;87471;-61
2024/02/05 00:20:40;;;;;;;;;;;4.70;87.00;;;;;;5016660;28;86969;-60
2024/02/05 00:23:05;;;;;;;;;;;4.70;87.20;;;;;;5018967;28;86997;-61
2024/02/05 00:25:32;;;;;;;;;;;4.70;87.00;;;;;;5018002;28;88496;-60
2024/02/05 00:27:57;;;;;;;;;;;4.70;87.00;;;;;;5012366;28;87075;-61
2024/02/05 00:30:23;;;;;;;;;;;4.70;87.00;;;;;;5015949;28;86522;-61
2024/02/05 00:32:49;;;;;;;;;;;4.60;87.00;;;;;;5014711;28;87566;-61
2024/02/05 00:35:15;;;;;;;;;;;4.70;87.00;;;;;;5020247;28;87048;-61
2024/02/05 00:37:40;;;;;;;;;;;4.60;86.90;;;;;;5018100;28;88291;-61
2024/02/05 00:40:07;;;;;;;;;;;4.60;86.90;;;;;;5015983;28;87039;-61
2024/02/05 00:42:33;;;;;;;;;;;4.60;86.80;;;;;;5015037;28;87951;-61
2024/02/05 00:44:58;;;;;;;;;;;4.60;87.00;;;;;;5017245;28;87491;-61
2024/02/05 00:47:24;;;;;;;;;;;4.60;87.00;;;;;;5015717;28;87049;-61
2024/02/05 00:49:50;;;;;;;;;;;4.60;86.90;;;;;;5012725;28;87051;-61
2024/02/05 00:52:15;;;;;;;;;;;4.60;86.90;;;;;;5008356;28;88322;-61
2024/02/05 00:54:41;;;;;;;;;;;4.60;86.80;;;;;;5013297;28;86410;-62
2024/02/05 00:57:06;;;;;;;;;;;4.60;86.90;;;;;;5019820;28;87011;-61
2024/02/05 00:59:32;;;;;;;;;;;4.60;87.00;;;;;;5015824;28;86986;-61
2024/02/05 01:01:58;;;;;;;;;;;4.60;86.90;;;;;;5017513;28;87995;-61
2024/02/05 01:04:23;;;;;;;;;;;4.60;87.00;;;;;;5012785;28;87514;-61
2024/02/05 01:06:49;;;;;;;;;;;4.60;87.00;;;;;;5012102;28;86945;-61
2024/02/05 01:09:14;;;;;;;;;;;4.60;87.00;;;;;;5012043;28;87031;-61
2024/02/05 01:11:40;;;;;;;;;;;4.60;86.90;;;;;;5017720;28;87493;-61
2024/02/05 01:14:05;;;;;;;;;;;4.50;86.90;;;;;;5010086;28;87780;-60
2024/02/05 01:16:31;;;;;;;;;;;4.50;87.00;;;;;;5021034;28;86944;-61
2024/02/05 01:18:57;;;;;;;;;;;4.50;86.80;;;;;;5014294;28;86317;-60
2024/02/05 01:21:23;;;;;;;;;;;4.50;86.90;;;;;;5010284;28;87378;-61
2024/02/05 01:23:49;;;;;;;;;;;4.50;86.90;;;;;;5010329;28;88485;-61
2024/02/05 01:26:14;;;;;;;;;;;4.50;86.90;;;;;;5013467;28;88027;-61
2024/02/05 01:28:40;;;;;;;;;;;4.50;86.90;;;;;;5019582;28;87678;-61
2024/02/05 01:31:06;;;;;;;;;;;4.50;87.00;;;;;;5019922;28;87589;-61
2024/02/05 01:33:32;;;;;;;;;;;4.50;86.90;;;;;;5019160;28;86973;-61
2024/02/05 01:35:57;;;;;;;;;;;4.50;86.80;;;;;;5017963;28;87044;-61
2024/02/05 01:38:23;;;;;;;;;;;4.50;86.90;;;;;;5022805;28;87419;-60
2024/02/05 01:40:49;;;;;;;;;;;4.50;86.90;;;;;;5018231;28;88092;-61
2024/02/05 01:43:16;;;;;;;;;;;4.50;86.90;;;;;;5019886;28;87826;-61
2024/02/05 01:45:42;;;;;;;;;;;4.50;87.00;;;;;;5018819;28;87556;-61
2024/02/05 01:48:07;;;;;;;;;;;4.40;86.80;;;;;;5020089;28;88212;-61
2024/02/05 01:50:33;;;;;;;;;;;4.40;86.80;;;;;;5017732;28;89579;-60
2024/02/05 01:52:59;;;;;;;;;;;4.40;86.90;;;;;;5013159;28;86937;-60
2024/02/05 01:55:26;;;;;;;;;;;4.40;86.80;;;;;;5019725;28;86988;-61
2024/02/05 01:57:53;;;;;;;;;;;4.40;86.90;;;;;;5014676;28;87415;-61
2024/02/05 02:00:19;;;;;;;;;;;4.40;86.90;;;;;;5020254;28;86863;-61
2024/02/05 02:02:45;;;;;;;;;;;4.40;86.90;;;;;;5016387;28;86944;-61
2024/02/05 02:05:11;;;;;;;;;;;4.40;86.80;;;;;;5018434;28;86973;-61
2024/02/05 02:07:37;;;;;;;;;;;4.40;86.90;;;;;;5016847;28;86725;-61
2024/02/05 02:10:04;;;;;;;;;;;4.40;86.90;;;;;;5015608;28;86919;-61
2024/02/05 02:12:30;;;;;;;;;;;4.40;86.80;;;;;;5019046;28;87040;-61
2024/02/05 02:14:55;;;;;;;;;;;4.40;86.80;;;;;;5017098;28;87920;-61
2024/02/05 02:17:22;;;;;;;;;;;4.40;86.90;;;;;;5021550;28;88453;-61
2024/02/05 02:19:51;;;;;;;;;;;4.40;86.80;;;;;;5020184;28;87022;-61
2024/02/05 02:22:35;;;;;;;;;;;4.40;86.80;;;;;;5019101;28;88077;-61
2024/02/05 02:25:01;;;;;;;;;;;4.40;86.80;;;;;;5015889;28;86983;-61
2024/02/05 02:27:27;;;;;;;;;;;4.40;86.70;;;;;;5014891;28;87076;-60
2024/02/05 02:29:52;;;;;;;;;;;4.30;86.80;;;;;;5014273;28;88500;-61
2024/02/05 02:32:35;;;;;;;;;;;4.30;86.70;;;;;;5017412;28;86119;-62
2024/02/05 02:35:07;;;;;;;;;;;4.30;86.80;;;;;;5017534;28;86833;-61
2024/02/05 02:37:35;;;;;;;;;;;4.30;86.80;;;;;;5018754;28;87419;-61
2024/02/05 02:40:09;;;;;;;;;;;4.30;86.80;;;;;;5016990;28;88106;-61
2024/02/05 02:42:40;;;;;;;;;;;4.30;86.90;;;;;;5017504;28;88985;-61
2024/02/05 02:45:07;;;;;;;;;;;4.30;86.90;;;;;;5023174;28;86924;-61
2024/02/05 02:47:33;;;;;;;;;;;4.30;86.90;;;;;;5016508;28;87925;-61
2024/02/05 02:49:58;;;;;;;;;;;4.30;86.90;;;;;;5020190;28;87531;-61
2024/02/05 02:52:24;;;;;;;;;;;4.30;86.90;;;;;;5016625;28;87087;-61
2024/02/05 02:54:50;;;;;;;;;;;4.30;86.90;;;;;;5020047;28;87028;-61
2024/02/05 02:57:15;;;;;;;;;;;4.30;87.10;;;;;;5016982;28;86545;-61
2024/02/05 02:59:41;;;;;;;;;;;4.30;86.80;;;;;;5020317;28;87150;-61
2024/02/05 03:02:07;;;;;;;;;;;4.30;86.90;;;;;;5016494;28;87859;-61
2024/02/05 03:04:32;;;;;;;;;;;4.30;86.80;;;;;;5014510;28;89493;-61
2024/02/05 03:06:58;;;;;;;;;;;4.30;86.80;;;;;;5019966;28;87043;-61
2024/02/05 03:09:23;;;;;;;;;;;4.30;86.90;;;;;;5015137;28;88445;-61
2024/02/05 03:11:49;;;;;;;;;;;4.30;86.90;;;;;;5015976;28;87141;-61
2024/02/05 03:14:14;;;;;;;;;;;4.30;86.90;;;;;;5016602;28;86891;-61
2024/02/05 03:16:40;;;;;;;;;;;4.20;86.90;;;;;;5019281;28;88353;-61
2024/02/05 03:19:06;;;;;;;;;;;4.20;86.90;;;;;;5016593;28;86928;-60
2024/02/05 03:21:31;;;;;;;;;;;4.30;87.00;;;;;;5015479;28;87570;-61
2024/02/05 03:23:57;;;;;;;;;;;4.30;87.10;;;;;;5012998;28;87513;-61
2024/02/05 03:26:23;;;;;;;;;;;4.20;87.00;;;;;;5014709;28;87063;-61
2024/02/05 03:28:48;;;;;;;;;;;4.20;87.00;;;;;;5014766;28;89232;-61
2024/02/05 03:31:14;;;;;;;;;;;4.30;87.00;;;;;;5019379;28;87088;-60
2024/02/05 03:33:39;;;;;;;;;;;4.20;87.00;;;;;;5019728;28;87039;-61
2024/02/05 03:36:05;;;;;;;;;;;4.20;87.00;;;;;;5016229;28;87422;-61
2024/02/05 03:38:30;;;;;;;;;;;4.20;87.00;;;;;;5019342;28;87046;-61
2024/02/05 03:40:56;;;;;;;;;;;4.20;87.00;;;;;;5016177;28;87026;-61
2024/02/05 03:43:22;;;;;;;;;;;4.20;87.10;;;;;;5013401;28;88369;-60
2024/02/05 03:45:48;;;;;;;;;;;4.20;87.00;;;;;;5016248;28;86481;-61
2024/02/05 03:48:13;;;;;;;;;;;4.20;87.10;;;;;;5017848;28;86907;-61
2024/02/05 03:50:39;;;;;;;;;;;4.20;87.00;;;;;;5016423;28;87231;-61
2024/02/05 03:53:04;;;;;;;;;;;4.20;87.00;;;;;;5014983;28;87977;-61
2024/02/05 03:55:30;;;;;;;;;;;4.20;86.90;;;;;;5018336;28;87390;-61
2024/02/05 03:57:59;;;;;;;;;;;4.20;86.90;;;;;;5015354;28;87018;-61
2024/02/05 04:00:25;;;;;;;;;;;4.20;87.00;;;;;;5015703;28;86929;-61
2024/02/05 04:02:50;;;;;;;;;;;4.20;87.10;;;;;;5018738;28;87544;-61
2024/02/05 04:05:17;;;;;;;;;;;4.10;87.00;;;;;;5015878;28;87074;-60
2024/02/05 04:07:43;;;;;;;;;;;4.10;87.10;;;;;;5019275;28;86874;-61
2024/02/05 04:10:09;;;;;;;;;;;4.20;87.10;;;;;;5018697;28;86666;-60
2024/02/05 04:12:35;;;;;;;;;;;4.10;87.10;;;;;;5019276;28;86900;-61
2024/02/05 04:15:01;;;;;;;;;;;4.10;87.00;;;;;;5019047;28;87461;-61
2024/02/05 04:17:26;;;;;;;;;;;4.10;87.10;;;;;;5016220;28;87995;-61
2024/02/05 04:19:52;;;;;;;;;;;4.10;87.00;;;;;;5014972;28;87620;-61
2024/02/05 04:22:18;;;;;;;;;;;4.10;87.00;;;;;;5014718;28;87226;-61
2024/02/05 04:24:43;;;;;;;;;;;4.10;87.20;;;;;;5015541;28;87241;-61
2024/02/05 04:27:09;;;;;;;;;;;4.10;87.10;;;;;;5019116;28;86873;-61
2024/02/05 04:29:35;;;;;;;;;;;4.10;87.20;;;;;;5015693;28;88299;-61
2024/02/05 04:32:01;;;;;;;;;;;4.10;87.10;;;;;;5018004;28;87071;-61
2024/02/05 04:34:28;;;;;;;;;;;4.10;87.10;;;;;;5018559;28;87897;-61
2024/02/05 04:36:54;;;;;;;;;;;4.10;87.00;;;;;;5014995;28;86976;-61
2024/02/05 04:39:19;;;;;;;;;;;4.10;87.00;;;;;;5015050;28;86785;-60
2024/02/05 04:41:45;;;;;;;;;;;4.10;87.10;;;;;;5017953;28;87919;-61
2024/02/05 04:44:11;;;;;;;;;;;4.10;87.10;;;;;;5013883;28;86880;-61
2024/02/05 04:46:36;;;;;;;;;;;4.10;87.00;;;;;;5013773;28;86903;-60
2024/02/05 04:49:02;;;;;;;;;;;4.10;87.10;;;;;;5012435;28;87500;-61
2024/02/05 04:51:28;;;;;;;;;;;4.10;87.10;;;;;;5012907;28;87180;-61
2024/02/05 04:53:54;;;;;;;;;;;4.10;87.10;;;;;;5017428;28;86897;-61
2024/02/05 04:56:20;;;;;;;;;;;4.10;87.10;;;;;;5014826;28;86980;-60
2024/02/05 04:58:45;;;;;;;;;;;4.10;87.10;;;;;;5015457;28;86828;-61
2024/02/05 05:01:11;;;;;;;;;;;4.10;87.30;;;;;;5013542;28;88501;-61
2024/02/05 05:03:36;;;;;;;;;;;4.10;87.10;;;;;;5014440;28;87016;-61
2024/02/05 05:06:02;;;;;;;;;;;4.10;87.20;;;;;;5013788;28;87937;-61
2024/02/05 05:08:28;;;;;;;;;;;4.10;87.20;;;;;;5018194;28;87448;-61
2024/02/05 05:10:53;;;;;;;;;;;4.10;87.30;;;;;;5014712;28;87159;-61
2024/02/05 05:13:19;;;;;;;;;;;4.00;87.00;;;;;;5016935;28;86836;-61
2024/02/05 05:15:47;;;;;;;;;;;4.00;87.10;;;;;;5015234;28;87194;-61
2024/02/05 05:18:13;;;;;;;;;;;4.00;87.10;;;;;;5014473;28;86921;-61
2024/02/05 05:20:40;;;;;;;;;;;4.00;87.20;;;;;;5018217;28;86751;-60
2024/02/05 05:23:05;;;;;;;;;;;4.00;87.00;;;;;;5014802;28;86270;-60
2024/02/05 05:25:31;;;;;;;;;;;4.00;87.20;;;;;;5016207;28;87503;-61
2024/02/05 05:27:56;;;;;;;;;;;4.00;87.10;;;;;;5010569;28;87434;-60
2024/02/05 05:30:22;;;;;;;;;;;4.00;87.00;;;;;;5008191;28;87990;-60
2024/02/05 05:32:47;;;;;;;;;;;4.00;87.10;;;;;;5012110;28;88672;-61
2024/02/05 05:35:13;;;;;;;;;;;4.00;87.10;;;;;;5020512;28;88505;-60
2024/02/05 05:37:39;;;;;;;;;;;4.00;87.00;;;;;;5018143;28;86919;-61
2024/02/05 05:40:05;;;;;;;;;;;4.00;87.10;;;;;;5012278;28;87100;-60
2024/02/05 05:42:30;;;;;;;;;;;4.00;87.00;;;;;;5013461;28;87016;-61
2024/02/05 05:44:56;;;;;;;;;;;4.00;87.10;;;;;;5014090;28;86977;-60
2024/02/05 05:47:21;;;;;;;;;;;4.00;87.00;;;;;;5010349;28;86856;-60
2024/02/05 05:49:47;;;;;;;;;;;4.00;87.00;;;;;;5018183;28;87029;-59
2024/02/05 05:52:13;;;;;;;;;;;4.00;87.00;;;;;;5014216;28;86854;-61
2024/02/05 05:54:38;;;;;;;;;;;4.00;87.00;;;;;;5016872;28;88359;-59
2024/02/05 05:57:05;;;;;;;;;;;4.00;87.00;;;;;;5016730;28;86964;-61
2024/02/05 05:59:31;;;;;;;;;;;4.00;87.00;;;;;;5013474;28;88666;-60
2024/02/05 06:01:56;;;;;;;;;;;4.00;86.90;;;;;;5013907;28;87012;-60
2024/02/05 06:04:22;;;;;;;;;;;4.00;87.00;;;;;;5012822;28;87896;-61
2024/02/05 06:06:48;;;;;;;;;;;4.00;87.00;;;;;;5009143;28;87367;-61
2024/02/05 06:09:18;;;;;;;;;;;4.00;87.00;;;;;;5014048;28;87135;-61
2024/02/05 06:11:47;;;;;;;;;;;3.90;86.90;;;;;;5017459;28;86582;-61
2024/02/05 06:14:13;;;;;;;;;;;4.00;87.00;;;;;;5016422;28;88427;-61
2024/02/05 06:16:38;;;;;;;;;;;4.00;87.10;;;;;;5019291;28;87206;-60
2024/02/05 06:19:04;;;;;;;;;;;4.00;87.00;;;;;;5016225;28;88473;-61
2024/02/05 06:21:29;;;;;;;;;;;4.00;87.10;;;;;;5020025;28;87027;-61
2024/02/05 06:23:55;;;;;;;;;;;4.00;87.00;;;;;;5018078;28;86954;-60
2024/02/05 06:26:21;;;;;;;;;;;4.00;87.00;;;;;;5017247;28;87415;-61
2024/02/05 06:28:46;;;;;;;;;;;4.00;87.00;;;;;;5020512;28;86978;-61
2024/02/05 06:31:13;;;;;;;;;;;4.00;87.00;;;;;;5021006;28;87093;-61
2024/02/05 06:33:39;;;;;;;;;;;4.00;87.00;;;;;;5017384;28;88374;-61
2024/02/05 06:36:04;;;;;;;;;;;3.90;86.90;;;;;;5020086;28;86336;-61
2024/02/05 06:38:30;;;;;;;;;;;4.00;87.00;;;;;;5017984;28;87017;-61
2024/02/05 06:40:55;;;;;;;;;;;4.00;86.90;;;;;;5021967;28;87592;-60
2024/02/05 06:43:21;;;;;;;;;;;3.90;86.90;;;;;;5017401;28;87833;-61
2024/02/05 06:45:47;;;;;;;;;;;4.00;86.90;;;;;;5018782;28;88513;-61
2024/02/05 06:48:12;;;;;;;;;;;4.00;86.90;;;;;;5016798;28;87064;-61
2024/02/05 06:50:38;;;;;;;;;;;3.90;86.80;;;;;;5013028;28;87135;-61
2024/02/05 06:53:03;;;;;;;;;;;3.90;86.90;;;;;;5015336;28;87312;-61
2024/02/05 06:55:31;;;;;;;;;;;4.00;87.00;;;;;;5016172;28;87412;-61
2024/02/05 06:57:57;;;;;;;;;;;3.90;86.90;;;;;;5019481;28;87920;-60
2024/02/05 07:00:22;;;;;;;;;;;4.00;86.90;;;;;;5023173;28;88025;-61
2024/02/05 07:02:50;;;;;;;;;;;4.00;86.90;;;;;;5021427;28;87160;-61
2024/02/05 07:05:16;;;;;;;;;;;3.90;86.80;;;;;;5015744;28;87459;-61
2024/02/05 07:07:41;;;;;;;;;;;3.90;86.70;;;;;;5015410;28;87940;-61
2024/02/05 07:10:07;;;;;;;;;;;3.90;86.60;;;;;;5012335;28;88925;-61
2024/02/05 07:12:33;;;;;;;;;;;4.00;86.70;;;;;;5019723;28;87703;-61
2024/02/05 07:14:58;;;;;;;;;;;3.90;86.70;;;;;;5019347;28;87000;-61
2024/02/05 07:17:33;;;;;;;;;;;3.90;86.80;;;;;;5012646;28;86862;-60
2024/02/05 07:20:01;;;;;;;;;;;4.00;86.80;;;;;;5011334;28;88500;-61
2024/02/05 07:22:30;;;;;;;;;;;4.00;86.80;;;;;;5022019;28;87004;-61
2024/02/05 07:24:55;;;;;;;;;;;4.00;86.80;;;;;;5015731;28;86753;-61
2024/02/05 07:27:25;;;;;;;;;;;4.00;86.70;;;;;;5014247;28;87036;-61
2024/02/05 07:29:50;;;;;;;;;;;4.00;86.70;;;;;;5019860;28;86743;-60
2024/02/05 07:32:16;;;;;;;;;;;4.00;86.80;;;;;;5014557;28;88271;-61
2024/02/05 07:34:42;;;;;;;;;;;4.00;86.70;;;;;;5015424;28;87006;-61
2024/02/05 07:37:07;;;;;;;;;;;4.00;86.80;;;;;;5019859;28;87056;-61
2024/02/05 07:39:33;;;;;;;;;;;4.00;86.60;;;;;;5013382;28;88702;-61
2024/02/05 07:41:59;;;;;;;;;;;4.00;86.70;;;;;;5019390;28;87047;-61
2024/02/05 07:44:25;;;;;;;;;;;4.00;86.70;;;;;;5017559;28;86985;-61
2024/02/05 07:46:51;;;;;;;;;;;4.00;86.80;;;;;;5015265;28;86746;-61
2024/02/05 07:49:16;;;;;;;;;;;4.00;86.70;;;;;;5016030;28;86603;-61
2024/02/05 07:51:43;;;;;;;;;;;4.00;86.80;;;;;;5010410;28;87395;-62
2024/02/05 07:54:09;;;;;;;;;;;4.00;86.80;;;;;;5015435;28;87027;-61
2024/02/05 07:56:35;;;;;;;;;;;4.00;86.70;;;;;;5015506;28;88251;-61
2024/02/05 07:59:03;;;;;;;;;;;4.00;86.70;;;;;;5019379;28;87473;-60
2024/02/05 08:01:30;;;;;;;;;;;4.00;86.70;;;;;;5013970;28;86979;-62
2024/02/05 08:03:55;;;;;;;;;;;4.00;86.70;;;;;;5016302;28;86905;-61
2024/02/05 08:06:23;;;;;;;;;;;4.00;86.80;;;;;;5015478;28;87461;-61
2024/02/05 08:08:49;;;;;;;;;;;4.00;86.70;;;;;;5015789;28;87006;-61
2024/02/05 08:11:16;;;;;;;;;;;4.00;86.70;;;;;;5013946;28;87504;-61
2024/02/05 08:13:41;;;;;;;;;;;4.00;86.60;;;;;;5012392;28;86167;-61
2024/02/05 08:16:07;;;;;;;;;;;4.00;86.70;;;;;;5016047;28;87314;-60
2024/02/05 08:18:32;;;;;;;;;;;4.00;86.60;;;;;;5018084;28;87342;-61
2024/02/05 08:20:59;;;;;;;;;;;4.00;86.70;;;;;;5015613;28;87944;-61
2024/02/05 08:23:25;;;;;;;;;;;4.00;86.60;;;;;;5013643;28;88901;-60
2024/02/05 08:25:50;;;;;;;;;;;4.00;86.70;;;;;;5008313;28;86889;-61
2024/02/05 08:28:16;;;;;;;;;;;4.00;86.70;;;;;;5017644;28;86954;-61
2024/02/05 08:30:42;;;;;;;;;;;4.00;86.70;;;;;;5017906;28;87464;-61
2024/02/05 08:33:07;;;;;;;;;;;4.00;86.70;;;;;;5016005;28;87049;-61
2024/02/05 08:35:33;;;;;;;;;;;4.00;86.70;;;;;;5017382;28;87800;-60
2024/02/05 08:37:59;;;;;;;;;;;4.00;86.80;;;;;;5015591;28;87031;-61
2024/02/05 08:40:24;;;;;;;;;;;4.10;86.90;;;;;;5016377;28;87331;-61
2024/02/05 08:42:50;;;;;;;;;;;4.00;86.80;;;;;;5014527;28;87013;-61
2024/02/05 08:45:18;;;;;;;;;;;4.00;86.90;;;;;;5013442;28;88371;-61
2024/02/05 08:47:43;;;;;;;;;;;4.00;86.90;;;;;;5013529;28;86972;-61
2024/02/05 08:50:09;;;;;;;;;;;4.10;86.90;;;;;;5015385;28;87073;-60
2024/02/05 08:52:34;;;;;;;;;;;4.10;86.80;;;;;;5014713;28;87046;-60
2024/02/05 08:55:00;;;;;;;;;;;4.10;86.80;;;;;;5018883;28;87028;-60
2024/02/05 08:57:27;;;;;;;;;;;4.10;86.80;;;;;;5017153;28;88404;-61
2024/02/05 08:59:52;;;;;;;;;;;4.10;86.80;;;;;;5015354;28;87054;-61
2024/02/05 09:02:18;;;;;;;;;;;4.10;86.80;;;;;;5017918;28;86729;-61
2024/02/05 09:04:44;;;;;;;;;;;4.10;86.80;;;;;;5010816;28;88419;-61
2024/02/05 09:07:10;;;;;;;;;;;4.10;87.00;;;;;;5017419;28;87159;-61
2024/02/05 09:09:38;;;;;;;;;;;4.10;87.00;;;;;;5015144;28;87667;-61
2024/02/05 09:12:04;;;;;;;;;;;4.10;87.00;;;;;;5020976;28;87737;-61
2024/02/05 09:14:29;;;;;;;;;;;4.20;87.00;;;;;;5014453;28;87258;-61
2024/02/05 09:16:55;;;;;;;;;;;4.20;87.30;;;;;;5017013;28;87468;-61
2024/02/05 09:19:20;;;;;;;;;;;4.10;87.30;;;;;;5014491;28;87033;-61
2024/02/05 09:21:46;;;;;;;;;;;4.10;87.50;;;;;;5015874;28;86708;-61
2024/02/05 09:24:11;;;;;;;;;;;4.10;87.40;;;;;;5016566;28;87414;-61
2024/02/05 09:26:37;;;;;;;;;;;4.20;87.40;;;;;;5015947;28;86236;-61
2024/02/05 09:29:03;;;;;;;;;;;4.20;87.40;;;;;;5017206;28;86764;-61
2024/02/05 09:31:28;;;;;;;;;;;4.20;87.40;;;;;;5015062;28;88476;-61
2024/02/05 09:33:54;;;;;;;;;;;4.20;87.70;;;;;;5014525;28;88016;-61
2024/02/05 09:36:20;;;;;;;;;;;4.20;87.70;;;;;;5011172;28;87312;-61
2024/02/05 09:38:45;;;;;;;;;;;4.20;87.70;;;;;;5014651;28;87050;-61
2024/02/05 09:41:11;;;;;;;;;;;4.20;87.80;;;;;;5014038;28;87039;-60
2024/02/05 09:43:38;;;;;;;;;;;4.20;88.00;;;;;;5014779;28;88661;-61
2024/02/05 09:46:05;;;;;;;;;;;4.20;88.10;;;;;;5018211;28;87030;-61
2024/02/05 09:48:34;;;;;;;;;;;4.20;88.10;;;;;;5018608;28;86998;-60
2024/02/05 09:51:03;;;;;;;;;;;4.20;88.10;;;;;;5021603;28;88213;-61
2024/02/05 09:53:29;;;;;;;;;;;4.20;88.30;;;;;;5022720;28;86941;-61
2024/02/05 09:55:55;;;;;;;;;;;4.30;88.30;;;;;;5018462;28;87764;-61
2024/02/05 09:58:21;;;;;;;;;;;4.20;88.40;;;;;;5019330;28;87845;-61
2024/02/05 10:00:47;;;;;;;;;;;4.30;88.50;;;;;;5018919;28;87707;-61
2024/02/05 10:03:15;;;;;;;;;;;4.30;88.40;;;;;;5019694;28;89176;-60
2024/02/05 10:05:40;;;;;;;;;;;4.30;88.60;;;;;;5019666;28;87526;-61
2024/02/05 10:08:06;;;;;;;;;;;4.30;88.60;;;;;;5017563;28;86996;-61
2024/02/05 10:10:33;;;;;;;;;;;4.30;88.60;;;;;;5015048;28;86959;-61
2024/02/05 10:12:59;;;;;;;;;;;4.30;88.80;;;;;;5019228;28;87078;-61
2024/02/05 10:15:24;;;;;;;;;;;4.30;88.90;;;;;;5019730;28;87098;-61
2024/02/05 10:17:50;;;;;;;;;;;4.30;88.80;;;;;;5019437;28;87008;-61
2024/02/05 10:20:16;;;;;;;;;;;4.30;88.80;;;;;;5016269;28;87072;-61
2024/02/05 10:22:47;;;;;;;;;;;4.30;89.00;;;;;;5013295;28;88355;-61
2024/02/05 10:25:13;;;;;;;;;;;4.30;89.00;;;;;;5016878;28;87005;-61
2024/02/05 10:27:40;;;;;;;;;;;4.30;89.10;;;;;;5013448;28;87418;-61
2024/02/05 10:30:06;;;;;;;;;;;4.40;89.20;;;;;;5016677;28;88472;-60
2024/02/05 10:32:33;;;;;;;;;;;4.40;89.20;;;;;;5014728;28;86965;-61
2024/02/05 10:34:58;;;;;;;;;;;4.40;89.40;;;;;;5016575;28;87782;-61
2024/02/05 10:37:24;;;;;;;;;;;4.40;89.80;;;;;;5016490;28;87002;-60
2024/02/05 10:39:50;;;;;;;;;;;4.40;89.30;;;;;;5017319;28;86671;-61
2024/02/05 10:42:15;;;;;;;;;;;4.40;89.50;;;;;;5014765;28;87477;-61
2024/02/05 10:44:41;;;;;;;;;;;4.40;89.40;;;;;;5016791;28;86993;-60
2024/02/05 10:47:11;;;;;;;;;;;4.40;89.40;;;;;;5018398;28;87941;-61
2024/02/05 10:49:38;;;;;;;;;;;4.50;89.60;;;;;;5017061;28;86865;-61
2024/02/05 10:52:04;;;;;;;;;;;4.40;89.60;;;;;;5019598;28;87008;-61
2024/02/05 10:54:31;;;;;;;;;;;4.50;89.70;;;;;;5016407;28;87243;-61
2024/02/05 10:56:58;;;;;;;;;;;4.50;89.70;;;;;;5015208;28;87555;-61
2024/02/05 10:59:23;;;;;;;;;;;4.50;89.60;;;;;;5021825;28;86951;-61
2024/02/05 11:01:52;;;;;;;;;;;4.50;89.80;;;;;;5016701;28;87366;-61
2024/02/05 11:04:18;;;;;;;;;;;4.50;89.80;;;;;;5013281;28;86278;-61
2024/02/05 11:06:49;;;;;;;;;;;4.50;90.00;;;;;;5016063;28;86963;-61
2024/02/05 11:09:15;;;;;;;;;;;4.50;90.00;;;;;;5017892;28;86909;-61
2024/02/05 11:11:43;;;;;;;;;;;4.50;89.90;;;;;;5015797;28;88508;-61
2024/02/05 11:14:10;;;;;;;;;;;4.60;90.00;;;;;;5018642;28;87680;-61
2024/02/05 11:16:37;;;;;;;;;;;4.50;89.90;;;;;;5023974;28;87516;-61
2024/02/05 11:19:04;;;;;;;;;;;4.60;89.90;;;;;;5017136;28;87113;-61
2024/02/05 11:21:31;;;;;;;;;;;4.60;90.10;;;;;;5021910;28;87130;-61
2024/02/05 11:23:57;;;;;;;;;;;4.60;90.10;;;;;;5016740;28;86972;-61
2024/02/05 11:26:24;;;;;;;;;;;4.60;90.10;;;;;;5016241;28;87828;-61
2024/02/05 11:28:50;;;;;;;;;;;4.60;90.10;;;;;;5014095;28;86762;-61
2024/02/05 11:31:17;;;;;;;;;;;4.60;90.10;;;;;;5021518;28;86988;-60
2024/02/05 11:33:43;;;;;;;;;;;4.60;90.10;;;;;;5015940;28;86787;-61
2024/02/05 11:36:12;;;;;;;;;;;4.60;90.10;;;;;;5011805;28;88392;-61
2024/02/05 11:38:40;;;;;;;;;;;4.70;90.20;;;;;;5015858;28;87005;-61
2024/02/05 11:41:06;;;;;;;;;;;4.70;90.10;;;;;;5020459;28;86943;-61
2024/02/05 11:43:32;;;;;;;;;;;4.70;90.10;;;;;;5017508;28;86958;-60
2024/02/05 11:45:57;;;;;;;;;;;4.70;90.10;;;;;;5010928;28;87905;-61
2024/02/05 11:48:23;;;;;;;;;;;4.70;90.10;;;;;;5011596;28;87637;-60
2024/02/05 11:50:49;;;;;;;;;;;4.70;90.20;;;;;;5019758;28;87355;-60
2024/02/05 11:53:15;;;;;;;;;;;4.80;90.20;;;;;;5015083;28;87883;-59
2024/02/05 11:55:41;;;;;;;;;;;4.80;90.30;;;;;;5014122;28;86881;-61
2024/02/05 11:58:07;;;;;;;;;;;4.80;90.30;;;;;;5012721;28;86889;-61
2024/02/05 12:00:32;;;;;;;;;;;4.80;90.30;;;;;;5018663;28;87941;-61
2024/02/05 12:02:58;;;;;;;;;;;4.80;90.30;;;;;;5020776;28;88485;-61
2024/02/05 12:05:24;;;;;;;;;;;4.80;90.30;;;;;;5012506;28;86923;-60
2024/02/05 12:07:50;;;;;;;;;;;4.90;90.30;;;;;;5015294;28;87587;-60
2024/02/05 12:10:17;;;;;;;;;;;4.90;90.50;;;;;;5018158;28;86835;-60
2024/02/05 12:12:42;;;;;;;;;;;4.90;90.50;;;;;;5015263;28;87010;-61
2024/02/05 12:15:22;;;;;;;;;;;4.90;90.50;;;;;;5014653;28;86891;-61
2024/02/05 12:17:48;;;;;;;;;;;4.90;90.50;;;;;;5015783;28;86256;-61
2024/02/05 12:20:22;;;;;;;;;;;4.90;90.70;;;;;;5016585;28;86944;-61
2024/02/05 12:22:48;;;;;;;;;;;4.90;90.70;;;;;;5012603;28;87078;-60
2024/02/05 12:25:15;;;;;;;;;;;4.90;90.70;;;;;;5021037;28;87962;-61
2024/02/05 12:27:41;;;;;;;;;;;4.90;90.70;;;;;;5014478;28;88498;-61
2024/02/05 12:30:07;;;;;;;;;;;5.00;90.70;;;;;;5017620;28;87048;-61
2024/02/05 12:32:33;;;;;;;;;;;5.00;90.70;;;;;;5014989;28;86843;-61
2024/02/05 12:34:59;;;;;;;;;;;4.90;90.80;;;;;;5014482;28;87475;-61
2024/02/05 12:37:25;;;;;;;;;;;5.00;90.90;;;;;;5014955;28;87054;-61
2024/02/05 12:39:52;;;;;;;;;;;5.00;90.90;;;;;;5015014;28;86914;-60
2024/02/05 12:42:18;;;;;;;;;;;5.00;90.90;;;;;;5019008;28;86693;-61
2024/02/05 12:44:44;;;;;;;;;;;5.10;91.00;;;;;;5015088;28;86941;-61
2024/02/05 12:47:10;;;;;;;;;;;5.00;91.00;;;;;;5021076;28;87871;-60
2024/02/05 12:49:36;;;;;;;;;;;5.10;91.10;;;;;;5014145;28;87896;-61
2024/02/05 12:52:03;;;;;;;;;;;5.10;91.10;;;;;;5018777;28;88632;-61
2024/02/05 12:54:31;;;;;;;;;;;5.10;91.20;;;;;;5014617;28;88585;-61
2024/02/05 12:56:56;;;;;;;;;;;5.10;91.20;;;;;;5017828;28;87008;-61
2024/02/05 12:59:22;;;;;;;;;;;5.10;91.20;;;;;;5015515;28;87017;-61
2024/02/05 13:01:54;;;;;;;;;;;5.10;91.20;;;;;;5017550;28;88710;-61
2024/02/05 13:04:19;;;;;;;;;;;5.10;91.30;;;;;;5015937;28;87029;-60
2024/02/05 13:06:45;;;;;;;;;;;5.20;91.30;;;;;;5018977;28;87853;-61
2024/02/05 13:09:11;;;;;;;;;;;5.20;91.40;;;;;;5019704;28;87420;-61
2024/02/05 13:11:37;;;;;;;;;;;5.20;91.40;;;;;;5016085;28;87660;-61
2024/02/05 13:14:03;;;;;;;;;;;5.20;91.40;;;;;;5017306;28;89441;-61
2024/02/05 13:16:28;;;;;;;;;;;5.30;91.50;;;;;;5016711;28;87060;-61
2024/02/05 13:18:54;;;;;;;;;;;5.30;91.40;;;;;;5015853;28;87048;-61
2024/02/05 13:21:20;;;;;;;;;;;5.30;91.40;;;;;;5016534;28;87398;-61
2024/02/05 13:23:46;;;;;;;;;;;5.30;91.50;;;;;;5015733;28;87009;-61
2024/02/05 13:26:12;;;;;;;;;;;5.30;91.50;;;;;;5019354;28;87940;-60
2024/02/05 13:28:39;;;;;;;;;;;5.30;91.50;;;;;;5012305;28;87438;-61
2024/02/05 13:31:05;;;;;;;;;;;5.40;91.50;;;;;;5023216;28;86163;-60
2024/02/05 13:33:30;;;;;;;;;;;5.40;91.50;;;;;;5011635;28;87535;-60
2024/02/05 13:35:56;;;;;;;;;;;5.40;91.40;;;;;;5019576;28;87061;-60
2024/02/05 13:38:21;;;;;;;;;;;5.40;91.50;;;;;;5018631;28;87821;-60
2024/02/05 13:40:47;;;;;;;;;;;5.50;91.50;;;;;;5018846;28;87495;-61
2024/02/05 13:43:13;;;;;;;;;;;5.50;91.50;;;;;;5015374;28;87054;-60
2024/02/05 13:45:38;;;;;;;;;;;5.50;91.50;;;;;;5016273;28;87038;-61
2024/02/05 13:48:04;;;;;;;;;;;5.50;91.70;;;;;;5015502;28;87383;-61
2024/02/05 13:50:29;;;;;;;;;;;5.60;91.60;;;;;;5023838;28;87093;-60
2024/02/05 13:52:55;;;;;;;;;;;5.50;91.70;;;;;;5018777;28;88332;-60
2024/02/05 13:55:21;;;;;;;;;;;5.60;91.70;;;;;;5022072;28;86183;-61
2024/02/05 13:57:46;;;;;;;;;;;5.60;91.80;;;;;;5013678;28;86968;-60
2024/02/05 14:00:13;;;;;;;;;;;5.60;91.80;;;;;;5017199;28;87311;-61
2024/02/05 14:02:39;;;;;;;;;;;5.60;91.70;;;;;;5014340;28;87956;-61
2024/02/05 14:05:05;;;;;;;;;;;5.70;91.70;;;;;;5019693;28;87624;-61
2024/02/05 14:07:31;;;;;;;;;;;5.70;91.80;;;;;;5016512;28;88620;-61
2024/02/05 14:09:57;;;;;;;;;;;5.70;91.90;;;;;;5014278;28;87848;-59
2024/02/05 14:12:22;;;;;;;;;;;5.70;91.80;;;;;;5020107;28;86977;-61
2024/02/05 14:14:48;;;;;;;;;;;5.80;91.80;;;;;;5018877;28;86988;-61
2024/02/05 14:17:13;;;;;;;;;;;5.80;91.70;;;;;;5021244;28;86861;-61
2024/02/05 14:19:39;;;;;;;;;;;5.90;91.70;;;;;;5017039;28;87917;-61
2024/02/05 14:22:05;;;;;;;;;;;5.90;91.70;;;;;;5018598;28;87009;-60
2024/02/05 14:24:31;;;;;;;;;;;5.90;91.70;;;;;;5017750;28;89765;-60